Fort Myers, FL

3:03 PM EDT on September 01, 2014 (GMT -0400)
Page | Change Station
CLOSE
Current Station
Airport
Location: Fort Myers,
Elevation: 16 ft
Nearby Weather Stations

Elev 16 ft 26.58 °N, 81.86 °W | Updated 10 minutes ago

Partly Cloudy
Partly Cloudy
92 °F
Feels Like 97 °F
N
6
Wind Variable Wind from Variable

Today
High -- | Low -- °F
--% Chance of Precip.
Yesterday
High -- | Low -- °F
Precip. -- in
7:07 AM 7:47 PM
Waxing Crescent, 43% visible
Pressure 30.04 in
Visibility 10.0 miles
Clouds Few 4900 ft
Heat Index 97 °F
Dew Point 70 °F
Humidity 48%
Rainfall 0.00 in
Snow Depth Not available.
UV 12 out of 12
Pollen 5.20 out of 12
Air Quality Not available.
Flu Activity Not available.
METAR KFMY 011853Z VRB05KT 10SM FEW049 33/21 A3003 RMK AO2 SLP170 T03330211

More Conditions Fewer Conditions

Pressure 30.04 in
Visibility 10.0 miles
Clouds Few 4900 ft
Heat Index 97 °F
Dew Point 70 °F
Humidity 48%
Rainfall 0.00 in
Snow Depth Not available.
UV 12 out of 12
Pollen 5.20 out of 12
Air Quality Not available.
Flu Activity Not available.
METAR KFMY 011853Z VRB05KT 10SM FEW049 33/21 A3003 RMK AO2 SLP170 T03330211

More Conditions Fewer Conditions

10-Day Weather Forecast

Almanac

Astronomy

Sep. 01, 2014 Rise Set
Actual Time 7:07 AM EDT 7:47 PM EDT
Civil Twilight 6:43 AM EDT 8:10 PM EDT
Nautical Twilight 6:15 AM EDT 8:38 PM EDT
Astronomical Twilight 5:47 AM EDT 9:06 PM EDT
Moon 1:14 PM EDT No Moon Set
Length of Visible Light 13h 27m
Length of Day
12h 40m
Tomorrow will be 1m 30s shorter.
Waxing Crescent, 43% of the Moon is Illuminated
Today
Waxing Crescent
Sep 2
First Quarter
Sep 8
Full
Sep 15
Last Quarter
Sep 24
New

Today's Extremes

State Highs State Lows

Community

WunderPhotos

Upload Photos

1,749,367 photos uploaded!

WunderBlogs® & News

Nearby

Snow Depth

Station Depth Elevation
No new snow has been reported.

Earthquake Activity

City Distance Mag. Time & Date
No recent earthquake activity has been reported nearby.
Minimum magnitude displayed is 2.5.

Coastal Water Temperatures

Place Temperature
Fort Myers, FL 91.0 °F

Nearby Weather Stations